Content
SEND FEEDBACK

Daily
Averages
Monthly
Summary
United Kingdom

BOURNEMOUTH, ENGLAND


Home > Europe > United Kingdom > England
Elevation: 36 feet     Latitude: 50 47N     Longitude: 001 50W

WEATHER
 
SELECT A DAY
Number of Records: 261,611;   Date Range: 7/1/96 - 12/19/14
 
SHARE

PRINT THIS DATA

[ ← Previous Day ]
WEATHER ALMANAC - FEBRUARY 8, 2014
[ Next Day → ]
[ °C ]   °F
Weather ElementAverageHighLow
Temperature46.9 °F51 °F (3:00 am)44 °F (8:00 am)
Dewpoint38.8 °F48.2 °F (1:50 am)33 °F (9:00 pm)
Humidity71.4 %94 % (1:50 am)50 % (9:00 pm)
Barometer28.90 in29.00 in (1:00 am)28.82 in (2:20 pm)
Wind Speed21.9 mph31.1 mph (12:20 pm)
Wind Gust51.8 mph (12:20 pm)
Weather ElementAverage
Visibility6 mi
Wind DirectionSW (229.7 °)

Weather ElementTotal
Precipitation---
Heating Degree Days17.5 (Base 65)
Averaged from 65 records on February 8, 2014
WEATHER CONDITIONS BREAKOUT
WIND DIRECTION BREAKOUT
WEATHER BY HOUR - FEBRUARY 8, 2014
[ °C ]   °F
Local TimeTemperatureDewpointHumidityBarometerVisibilityWind DirectionWind SpeedGust SpeedPrecipitationEventsConditions
1:00 AM48.0 °F46.0 °F92 %29.00 in2.0 miSouth (180°)28.8 mphRainLight Rain
1:50 AM50.0 °F48.2 °F94 %28.97 in5.0 miSSW (210°)21.9 mph40.3 mphRainLight Rain
2:00 AM50.0 °F47.0 °F88 %28.98 in6.0 miSSW (210°)23.0 mphRainRain
2:20 AM50.0 °F48.2 °F94 %28.94 in6.2 miSSW (210°)15.0 mphMostly Cloudy
2:50 AM50.0 °F46.4 °F87 %28.94 in5.6 miSW (220°)19.6 mph34.5 mph
3:00 AM51.0 °F47.0 °F82 %28.96 in5.0 miSW (220°)18.4 mphLight Haze
3:20 AM44.6 °F41.0 °F87 %28.94 in4.3 miSW (220°)19.6 mph34.5 mphRainRain
4:00 AM45.0 °F42.0 °F86 %28.95 in7.0 miSW (230°)10.4 mphRainRain
4:20 AM44.6 °F42.8 °F93 %28.94 in6.2 miSW (220°)9.2 mph
4:50 AM48.2 °F41.0 °F76 %28.94 in6.2 miSW (220°)9.2 mphPartly Cloudy
5:00 AM48.0 °F41.0 °F70 %28.95 in6.0 miSW (230°)13.8 mphLight Haze
5:20 AM48.2 °F41.0 °F76 %28.94 in5.6 miSW (220°)17.3 mph
5:50 AM48.2 °F41.0 °F76 %28.91 in5.6 miSW (220°)16.1 mph
6:00 AM48.0 °F40.0 °F67 %28.94 in6.0 miSW (220°)16.1 mphLight Haze
6:20 AM44.6 °F39.2 °F81 %28.91 in6.2 miSW (220°)16.1 mph33.4 mphPartly Cloudy
6:50 AM46.4 °F37.4 °F71 %28.91 in6.2 miSW (230°)18.4 mphPartly Cloudy
7:00 AM46.0 °F38.0 °F64 %28.93 in8.0 miSW (230°)17.3 mphRainRain
7:20 AM46.4 °F39.2 °F76 %28.91 in5.6 miSW (230°)12.7 mphRainHeavy Rain Showers
7:50 AM44.6 °F41.0 °F87 %28.91 in5.6 miSW (220°)13.8 mphScattered Clouds
8:00 AM44.0 °F40.0 °F79 %28.92 in6.0 miSW (220°)13.8 mphRainRain Showers
8:20 AM46.4 °F39.2 °F76 %28.91 in6.2 miSW (230°)21.9 mph33.4 mphScattered Clouds
8:50 AM44.6 °F35.6 °F71 %28.91 in6.2 miWSW (240°)25.3 mph42.6 mphScattered Clouds
9:00 AM45.0 °F36.0 °F62 %28.93 in9.0 miWSW (240°)25.3 mphRainRain
9:20 AM44.6 °F37.4 °F76 %28.91 in6.2 miWSW (240°)19.6 mphScattered Clouds
9:50 AM46.4 °F35.6 °F66 %28.91 in6.2 miSW (230°)17.3 mphScattered Clouds
10:00 AM47.0 °F36.0 °F56 %28.92 in7.0 miSW (230°)17.3 mphRainRain
10:20 AM44.6 °F33.8 °F66 %28.88 in6.2 miSW (220°)26.5 mphScattered Clouds
10:50 AM46.4 °F39.2 °F76 %28.88 in5.0 miSSW (210°)21.9 mph33.4 mphScattered Clouds
11:00 AM46.0 °F38.0 °F67 %28.91 in3.0 miSSW (210°)21.9 mphRainLight Rain Showers
11:20 AM48.2 °F37.4 °F66 %28.88 in5.0 miSW (230°)25.3 mph38.0 mphPartly Cloudy
11:50 AM48.2 °F37.4 °F66 %28.88 in5.6 miSW (230°)25.3 mph40.3 mphPartly Cloudy
12:00 PM49.0 °F38.0 °F54 %28.90 in7.0 miSW (230°)25.3 mphRainRain
12:20 PM48.2 °F37.4 °F66 %28.88 in6.2 miSW (230°)31.1 mph51.8 mphPartly Cloudy
12:50 PM48.2 °F35.6 °F62 %28.85 in6.2 miSW (230°)28.8 mph46.0 mphScattered Clouds
1:00 PM49.0 °F36.0 °F51 %28.87 in7.0 miSW (230°)28.8 mphPartly Cloudy
1:20 PM48.2 °F35.6 °F62 %28.85 in6.2 miSW (230°)25.3 mph41.4 mphScattered Clouds
1:50 PM48.2 °F37.4 °F66 %28.85 in6.2 miSW (220°)27.6 mph42.6 mphScattered Clouds
2:00 PM48.0 °F37.0 °F57 %28.86 in7.0 miSW (220°)27.6 mphPartly Cloudy
2:20 PM48.2 °F37.4 °F66 %28.82 in6.2 miSW (220°)25.3 mph41.4 mphScattered Clouds
2:50 PM48.2 °F37.4 °F66 %28.82 in6.2 miSW (220°)21.9 mph36.8 mphScattered Clouds
3:00 PM48.0 °F38.0 °F57 %28.85 in7.0 miSW (220°)20.7 mphScattered Clouds
3:20 PM46.4 °F37.4 °F71 %28.82 in6.2 miSW (230°)26.5 mph39.1 mphScattered Clouds
3:50 PM48.2 °F39.2 °F71 %28.82 in6.2 miSW (220°)23.0 mph34.5 mphScattered Clouds
4:00 PM48.0 °F39.0 °F61 %28.84 in6.0 miSW (220°)21.9 mphScattered Clouds
4:20 PM46.4 °F41.0 °F81 %28.82 in6.2 miSW (220°)23.0 mph34.5 mphRainLight Rain Showers
4:50 PM46.4 °F41.0 °F81 %28.82 in5.6 miSW (230°)21.9 mph34.5 mphMostly Cloudy
5:00 PM47.0 °F40.0 °F69 %28.83 in6.0 miSW (230°)23.0 mphRainRain
5:20 PM46.4 °F41.0 °F81 %28.82 in6.2 miSW (230°)19.6 mph34.5 mphScattered Clouds
5:50 PM46.4 °F41.0 °F81 %28.85 in6.2 miWSW (240°)23.0 mph34.5 mphRainLight Rain Showers
6:00 PM44.0 °F39.0 °F78 %28.86 in8.0 miWSW (240°)23.0 mphRainLight Rain Showers
6:20 PM46.4 °F41.0 °F81 %28.85 in6.2 miWSW (240°)23.0 mph36.8 mphRainLight Rain
6:50 PM46.4 °F39.2 °F76 %28.85 in6.2 miWSW (250°)21.9 mph35.7 mphPartly Cloudy
7:00 PM46.0 °F39.0 °F70 %28.87 in8.0 miWSW (250°)21.9 mphRainRain
7:20 PM46.4 °F37.4 °F71 %28.88 in5.6 miWSW (250°)24.2 mph35.7 mphMostly Cloudy
7:50 PM46.4 °F37.4 °F71 %28.88 in5.6 miWest (260°)26.5 mph38.0 mphMostly Cloudy
8:00 PM47.0 °F37.0 °F59 %28.91 in6.0 miWest (260°)26.5 mphLight Haze
8:20 PM46.4 °F35.6 °F66 %28.91 in4.3 miWSW (250°)27.6 mph44.9 mphMostly Cloudy
8:50 PM46.4 °F33.8 °F62 %28.91 in5.6 miWSW (240°)28.8 mph44.9 mphMostly Cloudy
9:00 PM46.0 °F33.0 °F50 %28.92 in6.0 miWSW (250°)28.8 mphLight Haze
9:20 PM46.4 °F33.8 °F62 %28.91 in5.0 miWSW (250°)24.2 mph40.3 mphMostly Cloudy
9:50 PM46.4 °F33.8 °F62 %28.91 in6.2 miWSW (250°)27.6 mph40.3 mphPartly Cloudy
10:00 PM46.0 °F34.0 °F52 %28.93 in7.0 miWSW (250°)27.6 mphScattered Clouds
10:20 PM44.6 °F35.6 °F71 %28.91 in6.2 miWSW (240°)27.6 mph47.2 mphPartly Cloudy
10:50 PM44.6 °F35.6 °F71 %28.94 in6.2 miWSW (250°)21.9 mph35.7 mphPartly Cloudy
11:00 PM45.0 °F36.0 °F62 %28.95 in6.0 miWSW (240°)21.9 mphRainRain
Hourly data recorded from EGHH, located miles away from Bournemouth, England







STORIES FROM OUR PARTNERS